Time;durP1;ratioP1;P1;durP2;ratioP2;P2;SDS_P1;SDS_P2;PMS_P1;PMS_P2;Temp;Humidity;BMP_temperature;BMP_pressure;BME280_temperature;BME280_humidity;BME280_pressure;Samples;Min_cycle;Max_cycle;Signal;HPM_P1;HPM_P2
2021/11/12 00:02:14;;;;;;;22.07;12.23;;;6.90;99.90;;;;;;6179250;23;20237;-79
2021/11/12 00:13:49;;;;;;;19.17;10.87;;;6.90;99.90;;;;;;6178575;23;20609;-80
2021/11/12 00:16:16;;;;;;;22.57;11.67;;;6.90;99.90;;;;;;6152884;23;20230;-79
2021/11/12 00:18:42;;;;;;;23.10;11.73;;;6.90;99.90;;;;;;6152203;23;20182;-77
2021/11/12 00:21:08;;;;;;;21.17;11.80;;;6.80;99.90;;;;;;6153104;23;20166;-80
2021/11/12 00:23:35;;;;;;;20.50;11.70;;;6.90;99.90;;;;;;6152365;23;20220;-80
2021/11/12 00:26:02;;;;;;;25.77;12.73;;;6.80;99.90;;;;;;6178674;23;20175;-81
2021/11/12 00:28:33;;;;;;;21.83;11.83;;;6.80;99.90;;;;;;6152188;23;20178;-79
2021/11/12 00:38:49;;;;;;;21.87;11.57;;;6.80;99.90;;;;;;6186370;23;20189;-79
2021/11/12 00:41:37;;;;;;;23.57;11.67;;;6.70;99.90;;;;;;6152994;23;20150;-79
2021/11/12 00:44:24;;;;;;;19.10;10.93;;;6.70;99.90;;;;;;6152945;23;20242;-77
2021/11/12 00:46:53;;;;;;;23.70;12.50;;;6.70;99.90;;;;;;6178531;23;20171;-78
2021/11/12 00:49:23;;;;;;;29.17;12.97;;;6.80;99.90;;;;;;6179133;23;20286;-79
2021/11/12 00:51:51;;;;;;;23.17;12.33;;;6.80;99.90;;;;;;6180120;23;20182;-77
2021/11/12 00:54:18;;;;;;;28.47;13.07;;;6.70;99.90;;;;;;6179543;23;20151;-79
2021/11/12 00:56:44;;;;;;;26.67;12.97;;;6.70;99.90;;;;;;6153013;23;20159;-77
2021/11/12 00:59:10;;;;;;;26.60;13.43;;;6.80;99.90;;;;;;6151740;23;20527;-80
2021/11/12 01:01:39;;;;;;;25.63;13.53;;;6.80;99.90;;;;;;6152247;23;20162;-80
2021/11/12 01:04:07;;;;;;;25.00;12.67;;;6.80;99.90;;;;;;6152618;23;20163;-79
2021/11/12 01:06:35;;;;;;;27.37;13.97;;;6.80;99.90;;;;;;6152431;23;20760;-79
2021/11/12 01:09:03;;;;;;;26.20;11.90;;;6.80;99.90;;;;;;6152044;23;20294;-79
2021/11/12 01:11:29;;;;;;;29.07;13.63;;;6.80;99.90;;;;;;6178571;23;20234;-79
2021/11/12 01:13:55;;;;;;;28.53;13.50;;;6.80;99.90;;;;;;6152011;23;20182;-79
2021/11/12 01:16:21;;;;;;;25.53;14.13;;;6.80;99.90;;;;;;6178349;23;20159;-77
2021/11/12 01:18:48;;;;;;;21.43;12.40;;;6.80;99.90;;;;;;6151943;23;20694;-80
2021/11/12 01:21:15;;;;;;;25.07;13.83;;;6.80;99.90;;;;;;6151903;23;20159;-80
2021/11/12 01:23:46;;;;;;;25.83;13.27;;;6.80;99.90;;;;;;6178197;23;20179;-80
2021/11/12 01:26:12;;;;;;;25.77;14.07;;;6.80;99.90;;;;;;6151762;23;20179;-79
2021/11/12 01:28:38;;;;;;;25.73;14.23;;;6.80;99.90;;;;;;6151350;23;20270;-79
2021/11/12 01:31:04;;;;;;;25.87;13.17;;;6.80;99.90;;;;;;6178188;23;20537;-79
2021/11/12 01:33:30;;;;;;;26.57;13.63;;;6.80;99.90;;;;;;6153954;23;20210;-80
2021/11/12 01:36:02;;;;;;;28.20;14.43;;;6.80;99.90;;;;;;6153572;23;20171;-79
2021/11/12 01:38:28;;;;;;;30.10;13.97;;;6.80;99.90;;;;;;6180354;23;20167;-79
2021/11/12 01:40:54;;;;;;;32.90;14.03;;;6.80;99.90;;;;;;6180802;23;20471;-79
2021/11/12 01:43:23;;;;;;;27.70;14.07;;;6.80;99.90;;;;;;6153681;23;20162;-78
2021/11/12 01:46:24;;;;;;;28.27;14.80;;;6.80;99.90;;;;;;6179778;23;20195;-78
2021/11/12 01:51:26;;;;;;;26.63;14.37;;;6.80;99.90;;;;;;6189860;23;20493;-79
2021/11/12 01:54:08;;;;;;;29.60;13.73;;;6.80;99.90;;;;;;6152857;23;20144;-79
2021/11/12 02:01:33;;;;;;;27.80;14.77;;;6.80;99.90;;;;;;6178767;23;20190;-79
2021/11/12 02:03:59;;;;;;;27.67;13.93;;;6.80;99.90;;;;;;6151558;23;20163;-79
2021/11/12 02:06:25;;;;;;;28.10;13.13;;;6.80;99.90;;;;;;6151827;23;20175;-79
2021/11/12 02:08:53;;;;;;;28.27;13.97;;;6.80;99.90;;;;;;6177528;23;20179;-79
2021/11/12 02:11:20;;;;;;;28.40;13.83;;;6.80;99.90;;;;;;6178473;23;20238;-79
2021/11/12 02:13:48;;;;;;;27.23;14.43;;;6.90;99.90;;;;;;6151849;23;20630;-79
2021/11/12 02:16:21;;;;;;;30.03;13.93;;;6.90;99.90;;;;;;6178101;23;20219;-79
2021/11/12 02:18:48;;;;;;;28.10;13.53;;;6.90;99.90;;;;;;6151404;23;20229;-79
2021/11/12 02:21:32;;;;;;;27.37;13.00;;;6.80;99.90;;;;;;6151802;23;20205;-79
2021/11/12 02:24:10;;;;;;;26.07;12.63;;;6.80;99.90;;;;;;6151643;23;20155;-79
2021/11/12 02:26:44;;;;;;;28.13;13.17;;;6.80;99.90;;;;;;6178258;23;20210;-79
2021/11/12 02:29:11;;;;;;;25.10;12.83;;;6.80;99.90;;;;;;6151293;23;20186;-79
2021/11/12 02:31:39;;;;;;;28.17;13.40;;;6.80;99.90;;;;;;6178196;23;20160;-79
2021/11/12 02:34:14;;;;;;;26.73;12.77;;;6.80;99.90;;;;;;6151908;23;20154;-79
2021/11/12 02:36:41;;;;;;;27.00;13.27;;;6.80;99.90;;;;;;6178214;23;20170;-79
2021/11/12 02:39:10;;;;;;;24.50;12.20;;;6.80;99.90;;;;;;6151270;23;20182;-79
2021/11/12 02:41:37;;;;;;;28.83;12.83;;;6.80;99.90;;;;;;6151558;23;20163;-79
2021/11/12 02:44:03;;;;;;;24.43;12.63;;;6.80;99.90;;;;;;6177667;23;20242;-79
2021/11/12 02:46:30;;;;;;;26.83;12.97;;;6.80;99.90;;;;;;6151276;23;20179;-79
2021/11/12 02:48:57;;;;;;;25.70;12.37;;;6.80;99.90;;;;;;6151502;23;20753;-79
2021/11/12 02:51:28;;;;;;;25.37;12.40;;;6.80;99.90;;;;;;6151546;23;20165;-80
2021/11/12 02:53:56;;;;;;;28.20;12.63;;;6.80;99.90;;;;;;6151504;23;20635;-80
2021/11/12 02:56:34;;;;;;;28.53;12.80;;;6.80;99.90;;;;;;6177854;23;20155;-79
2021/11/12 02:59:04;;;;;;;26.23;12.53;;;6.80;99.90;;;;;;6177103;23;20182;-79
2021/11/12 03:01:32;;;;;;;33.27;13.90;;;6.80;99.90;;;;;;6151237;23;20216;-79
2021/11/12 03:03:58;;;;;;;32.03;13.93;;;6.80;99.90;;;;;;6151422;23;20170;-80
2021/11/12 03:06:24;;;;;;;30.70;12.87;;;6.70;99.90;;;;;;6151455;23;20183;-77
2021/11/12 03:08:51;;;;;;;31.90;14.13;;;6.70;99.90;;;;;;6150721;23;20190;-80
2021/11/12 03:11:18;;;;;;;29.53;13.30;;;6.70;99.90;;;;;;6151431;23;20143;-79
2021/11/12 03:13:47;;;;;;;33.13;13.77;;;6.80;99.90;;;;;;6151176;23;20159;-79
2021/11/12 03:16:15;;;;;;;35.40;14.87;;;6.80;99.90;;;;;;6151063;23;20167;-79
2021/11/12 03:18:41;;;;;;;29.17;13.60;;;6.80;99.90;;;;;;6150740;23;20190;-78
2021/11/12 03:21:10;;;;;;;35.83;14.30;;;6.80;99.90;;;;;;6151277;23;20163;-79
2021/11/12 03:23:45;;;;;;;31.50;13.70;;;6.80;99.90;;;;;;6177806;23;20234;-79
2021/11/12 03:28:56;;;;;;;30.70;13.37;;;6.80;99.90;;;;;;6177948;23;20583;-79
2021/11/12 04:19:57;;;;;;;42.57;13.57;;;6.70;99.90;;;;;;6176007;23;20190;-80
2021/11/12 04:42:05;;;;;;;40.73;13.80;;;6.70;99.90;;;;;;6175874;23;20154;-78
2021/11/12 04:50:01;;;;;;;32.97;12.33;;;6.60;99.90;;;;;;6174175;23;20653;-80
2021/11/12 05:34:19;;;;;;;27.10;10.23;;;6.60;99.90;;;;;;6175355;23;20571;-77
2021/11/12 05:44:49;;;;;;;29.00;11.07;;;6.70;99.90;;;;;;6175411;23;20150;-79
2021/11/12 05:50:09;;;;;;;26.60;10.60;;;6.70;99.90;;;;;;6175536;23;20241;-76
2021/11/12 05:55:21;;;;;;;26.10;9.60;;;6.60;99.90;;;;;;6128932;23;20559;-78
2021/11/12 05:57:47;;;;;;;25.03;10.40;;;6.60;99.90;;;;;;6148529;23;20163;-78
2021/11/12 06:00:17;;;;;;;26.40;9.93;;;6.60;99.90;;;;;;6149588;23;20186;-78
2021/11/12 06:02:43;;;;;;;22.23;9.47;;;6.70;99.90;;;;;;6148828;23;20201;-77
2021/11/12 06:05:09;;;;;;;24.57;9.03;;;6.70;99.90;;;;;;6149198;23;20183;-78
2021/11/12 06:07:35;;;;;;;23.20;8.83;;;6.70;99.90;;;;;;6174684;23;20726;-77
2021/11/12 06:10:01;;;;;;;21.57;8.87;;;6.70;99.90;;;;;;6175019;23;20206;-77
2021/11/12 06:12:26;;;;;;;20.67;9.03;;;6.80;99.90;;;;;;6148680;23;20475;-76
2021/11/12 06:14:53;;;;;;;20.67;8.50;;;6.70;99.90;;;;;;6148883;23;20163;-77
2021/11/12 06:17:18;;;;;;;19.67;8.03;;;6.80;99.90;;;;;;6148484;23;20165;-75
2021/11/12 06:19:44;;;;;;;19.00;8.00;;;6.80;99.90;;;;;;6175266;23;20262;-79
2021/11/12 06:22:10;;;;;;;17.67;6.87;;;6.70;99.90;;;;;;6175012;23;20154;-77
2021/11/12 06:24:36;;;;;;;19.87;7.77;;;6.70;99.90;;;;;;6175067;23;20484;-80
2021/11/12 06:27:02;;;;;;;18.23;7.60;;;6.70;99.90;;;;;;6175072;23;20515;-78
2021/11/12 06:29:28;;;;;;;17.60;8.53;;;6.70;99.90;;;;;;6148125;23;20202;-76
2021/11/12 06:31:55;;;;;;;19.30;8.37;;;6.70;99.90;;;;;;6172513;23;20150;-78
2021/11/12 06:34:20;;;;;;;22.77;9.20;;;6.70;99.90;;;;;;6174402;23;20135;-79
2021/11/12 06:36:47;;;;;;;20.50;8.47;;;6.60;99.90;;;;;;6147895;23;20155;-76
2021/11/12 06:39:13;;;;;;;18.80;8.67;;;6.60;99.90;;;;;;6174703;23;20229;-78
2021/11/12 06:44:27;;;;;;;23.93;9.80;;;6.50;99.90;;;;;;6184947;23;20143;-80
2021/11/12 06:52:36;;;;;;;20.00;9.20;;;6.50;99.90;;;;;;6147082;23;20162;-80
2021/11/12 06:55:02;;;;;;;21.10;8.97;;;6.50;99.90;;;;;;6174832;23;20243;-80
2021/11/12 06:57:28;;;;;;;19.33;9.30;;;6.50;99.90;;;;;;6148025;23;20178;-79
2021/11/12 06:59:54;;;;;;;18.63;8.57;;;6.60;99.90;;;;;;6175003;23;20195;-79
2021/11/12 07:02:22;;;;;;;22.50;9.23;;;6.60;99.90;;;;;;6151178;23;20225;-80
2021/11/12 07:04:48;;;;;;;23.20;9.63;;;6.60;99.90;;;;;;6149896;23;20163;-77
2021/11/12 07:07:14;;;;;;;21.13;9.17;;;6.60;99.90;;;;;;6147789;23;20170;-79
2021/11/12 07:09:40;;;;;;;20.43;10.00;;;6.60;99.90;;;;;;6174096;23;20183;-79
2021/11/12 07:12:06;;;;;;;22.07;9.80;;;6.70;99.90;;;;;;6147534;23;20301;-80
2021/11/12 07:14:32;;;;;;;24.03;9.63;;;6.70;99.90;;;;;;6149120;23;20650;-79
2021/11/12 07:16:58;;;;;;;19.53;8.73;;;6.70;99.90;;;;;;6175197;23;20155;-80
2021/11/12 07:19:23;;;;;;;20.03;10.00;;;6.70;99.90;;;;;;6148392;23;20190;-81
2021/11/12 07:21:49;;;;;;;23.33;10.87;;;6.60;99.90;;;;;;6175142;23;20165;-81
2021/11/12 07:24:15;;;;;;;16.43;8.73;;;6.60;99.90;;;;;;6148404;23;20163;-81
2021/11/12 07:26:41;;;;;;;19.70;9.23;;;6.60;99.90;;;;;;6174858;23;20175;-81
2021/11/12 07:29:07;;;;;;;18.70;9.23;;;6.60;99.90;;;;;;6147206;23;20623;-80
2021/11/12 07:31:33;;;;;;;14.67;8.30;;;6.60;99.90;;;;;;6150253;23;20165;-79
2021/11/12 07:34:00;;;;;;;16.37;8.03;;;6.70;99.90;;;;;;6151697;23;20539;-79
2021/11/12 07:36:45;;;;;;;15.43;8.37;;;6.70;99.90;;;;;;6164703;23;20249;-80
2021/11/12 07:39:25;;;;;;;15.47;8.23;;;6.80;99.90;;;;;;6158682;23;20266;-81
2021/11/12 07:47:15;;;;;;;18.97;8.80;;;7.10;99.90;;;;;;6175747;23;20212;-80
2021/11/12 07:50:03;;;;;;;18.90;9.03;;;7.10;99.90;;;;;;6149316;23;20175;-80
2021/11/12 07:52:35;;;;;;;16.20;8.97;;;7.10;99.90;;;;;;6174533;23;20159;-79
2021/11/12 07:55:02;;;;;;;20.60;9.27;;;7.10;99.90;;;;;;6174245;23;20147;-79
2021/11/12 07:57:28;;;;;;;18.83;9.60;;;7.20;99.90;;;;;;6174452;23;20198;-80
2021/11/12 07:59:55;;;;;;;17.27;9.50;;;7.20;99.90;;;;;;6148041;23;20508;-80
2021/11/12 08:02:21;;;;;;;17.37;10.50;;;7.30;99.90;;;;;;6175346;23;20234;-79
2021/11/12 08:04:49;;;;;;;20.17;10.83;;;7.30;99.90;;;;;;6150376;23;20162;-78
2021/11/12 08:07:15;;;;;;;18.83;10.33;;;7.40;99.90;;;;;;6149020;23;20190;-78
2021/11/12 08:09:51;;;;;;;19.43;11.67;;;7.50;99.90;;;;;;6148370;23;20198;-80
2021/11/12 08:12:37;;;;;;;16.43;10.97;;;7.40;99.90;;;;;;6147767;23;20924;-79
2021/11/12 08:17:54;;;;;;;11.53;7.60;;;7.50;99.90;;;;;;6174302;23;20711;-80
2021/11/12 08:23:26;;;;;;;9.33;7.03;;;7.50;99.90;;;;;;6155978;23;20163;-79
2021/11/12 08:26:06;;;;;;;6.63;5.73;;;7.60;99.90;;;;;;6173889;23;20170;-80
2021/11/12 08:33:47;;;;;;;5.93;5.00;;;7.70;99.90;;;;;;6174048;23;20608;-81
2021/11/12 08:36:33;;;;;;;5.47;4.83;;;7.70;99.90;;;;;;6174050;23;20537;-80
2021/11/12 08:41:45;;;;;;;5.00;3.87;;;7.70;99.90;;;;;;6184363;23;20155;-78
2021/11/12 08:44:36;;;;;;;3.87;2.20;;;7.70;99.90;;;;;;6147736;23;20154;-79
2021/11/12 08:49:54;;;;;;;3.50;2.90;;;7.60;99.90;;;;;;6125348;23;20171;-79
2021/11/12 08:52:23;;;;;;;5.73;4.60;;;7.60;99.90;;;;;;6150128;23;20503;-81
2021/11/12 08:54:49;;;;;;;6.03;4.17;;;7.60;99.90;;;;;;6178481;23;20154;-79
2021/11/12 08:57:17;;;;;;;7.87;6.00;;;7.50;99.90;;;;;;6150820;23;20191;-78
2021/11/12 08:59:45;;;;;;;8.53;6.70;;;7.50;99.90;;;;;;6149941;23;20178;-80
2021/11/12 09:02:15;;;;;;;14.73;10.87;;;7.50;99.90;;;;;;6147729;23;20162;-81
2021/11/12 09:04:42;;;;;;;10.63;8.37;;;7.50;99.90;;;;;;6148523;23;20209;-81
2021/11/12 09:07:10;;;;;;;19.33;14.23;;;7.50;99.90;;;;;;6148717;23;20270;-79
2021/11/12 09:09:36;;;;;;;10.93;7.73;;;7.50;99.90;;;;;;6175552;23;20190;-80
2021/11/12 09:12:04;;;;;;;15.13;13.43;;;7.40;99.90;;;;;;6149879;23;20163;-81
2021/11/12 09:14:32;;;;;;;11.80;8.93;;;7.40;99.90;;;;;;6148806;23;20634;-79
2021/11/12 09:17:04;;;;;;;14.33;12.83;;;7.30;99.90;;;;;;6175567;23;20165;-79
2021/11/12 09:19:31;;;;;;;11.43;8.53;;;7.30;99.90;;;;;;6172197;23;20537;-81
2021/11/12 09:21:57;;;;;;;10.33;6.47;;;7.20;99.90;;;;;;6171825;23;20432;-81
2021/11/12 09:24:23;;;;;;;7.63;4.77;;;7.10;99.90;;;;;;6169880;23;20151;-81
2021/11/12 09:26:48;;;;;;;7.20;6.07;;;7.20;99.90;;;;;;6146861;23;20936;-79
2021/11/12 09:29:14;;;;;;;6.10;3.90;;;7.20;99.90;;;;;;6146343;23;20788;-82
2021/11/12 09:31:40;;;;;;;5.80;3.87;;;7.10;99.90;;;;;;6172619;23;20143;-81
2021/11/12 09:34:07;;;;;;;6.43;4.23;;;7.00;99.90;;;;;;6146221;23;20662;-81
2021/11/12 09:36:33;;;;;;;8.40;4.90;;;7.00;99.90;;;;;;6146723;23;20190;-81
2021/11/12 09:38:59;;;;;;;9.00;5.57;;;7.10;99.90;;;;;;6146271;23;20272;-81
2021/11/12 09:41:27;;;;;;;8.03;4.73;;;7.00;99.90;;;;;;6173250;23;20752;-83
2021/11/12 09:43:53;;;;;;;8.37;4.63;;;7.00;99.90;;;;;;6146867;23;20615;-78
2021/11/12 09:46:18;;;;;;;4.13;3.53;;;7.00;99.90;;;;;;6146248;23;20185;-79
2021/11/12 09:48:44;;;;;;;6.53;4.50;;;6.90;99.90;;;;;;6146581;23;20179;-82
2021/11/12 09:51:11;;;;;;;6.80;4.67;;;6.80;99.90;;;;;;6146055;23;20226;-79
2021/11/12 09:53:38;;;;;;;6.73;4.93;;;6.80;99.90;;;;;;6147919;23;20193;-78
2021/11/12 09:56:07;;;;;;;7.30;4.53;;;6.80;99.90;;;;;;6147683;23;20471;-79
2021/11/12 09:58:33;;;;;;;6.57;5.00;;;6.70;99.90;;;;;;6148920;23;20654;-79
2021/11/12 10:00:59;;;;;;;9.57;5.00;;;6.80;99.90;;;;;;6175301;23;20159;-84
2021/11/12 10:03:32;;;;;;;10.23;5.37;;;6.80;99.90;;;;;;6148915;23;20632;-81
2021/11/12 10:05:59;;;;;;;9.43;6.00;;;6.80;99.90;;;;;;6145096;23;20618;-79
2021/11/12 10:08:37;;;;;;;10.07;6.07;;;6.70;99.90;;;;;;6147701;23;20178;-78
2021/11/12 10:11:20;;;;;;;11.47;6.33;;;6.70;99.90;;;;;;6147547;23;20154;-81
2021/11/12 10:13:46;;;;;;;11.07;6.77;;;6.80;99.90;;;;;;6150738;23;20147;-80
2021/11/12 10:19:05;;;;;;;15.10;7.80;;;6.80;99.90;;;;;;6174349;23;20187;-81
2021/11/12 10:21:33;;;;;;;15.90;7.83;;;6.70;99.90;;;;;;6147328;23;20238;-81
2021/11/12 10:24:01;;;;;;;17.90;8.87;;;6.80;99.90;;;;;;6146739;23;20241;-81
2021/11/12 10:26:29;;;;;;;14.13;8.13;;;6.80;99.90;;;;;;6147666;23;20264;-82
2021/11/12 10:29:00;;;;;;;16.80;8.97;;;6.70;99.90;;;;;;6147822;23;20183;-82
2021/11/12 10:31:26;;;;;;;18.13;8.63;;;6.70;99.90;;;;;;6173896;23;20229;-80
2021/11/12 10:33:52;;;;;;;15.70;8.43;;;6.80;99.90;;;;;;6142469;23;20630;-81
2021/11/12 10:36:19;;;;;;;14.47;9.47;;;6.80;99.90;;;;;;6144003;23;20158;-83
2021/11/12 10:38:48;;;;;;;15.43;9.33;;;6.80;99.90;;;;;;6147439;23;20183;-81
2021/11/12 10:41:24;;;;;;;18.57;9.37;;;6.90;99.90;;;;;;6177259;23;20139;-79
2021/11/12 10:43:52;;;;;;;16.90;9.83;;;6.80;99.90;;;;;;6151670;23;20169;-78
2021/11/12 10:46:33;;;;;;;17.93;10.50;;;6.90;99.90;;;;;;6152473;23;20262;-80
2021/11/12 10:49:22;;;;;;;17.77;9.60;;;6.70;99.90;;;;;;6151710;23;20190;-80
2021/11/12 10:51:57;;;;;;;16.30;10.67;;;6.70;99.90;;;;;;6178737;23;20970;-79
2021/11/12 10:55:00;;;;;;;20.63;10.83;;;6.60;99.90;;;;;;6152211;23;20678;-82
2021/11/12 10:57:30;;;;;;;30.40;11.87;;;6.80;99.90;;;;;;6151513;23;20212;-80
2021/11/12 11:00:10;;;;;;;31.00;13.60;;;6.80;99.90;;;;;;6151489;23;20183;-82
2021/11/12 11:02:46;;;;;;;17.87;10.10;;;7.00;99.90;;;;;;6151696;23;20154;-79
2021/11/12 11:05:26;;;;;;;17.23;11.30;;;7.10;99.90;;;;;;6178054;23;20200;-79
2021/11/12 11:08:05;;;;;;;16.33;11.73;;;7.20;99.90;;;;;;6151320;23;20166;-78
2021/11/12 11:10:36;;;;;;;15.60;11.27;;;7.30;99.90;;;;;;6150620;23;20171;-80
2021/11/12 11:13:11;;;;;;;10.23;7.63;;;7.40;99.90;;;;;;6151372;23;20163;-81
2021/11/12 11:15:52;;;;;;;13.93;7.80;;;7.50;99.90;;;;;;6151267;23;20221;-79
2021/11/12 11:18:24;;;;;;;12.47;8.10;;;7.40;99.90;;;;;;6150997;23;20151;-79
2021/11/12 11:21:07;;;;;;;13.43;9.10;;;7.50;99.90;;;;;;6175090;23;20159;-80
2021/11/12 11:24:11;;;;;;;14.90;9.53;;;7.80;99.90;;;;;;6151293;23;20622;-79
2021/11/12 11:26:37;;;;;;;34.97;16.13;;;7.80;99.90;;;;;;6177968;23;20166;-77
2021/11/12 11:29:04;;;;;;;19.80;12.60;;;7.70;99.90;;;;;;6150708;23;21093;-81
2021/11/12 11:31:31;;;;;;;28.03;17.17;;;7.50;99.90;;;;;;6151043;23;20218;-81
2021/11/12 11:33:58;;;;;;;20.87;11.03;;;7.50;99.90;;;;;;6151668;23;20152;-79
2021/11/12 11:36:27;;;;;;;21.90;13.20;;;7.40;99.90;;;;;;6150573;23;20619;-78
2021/11/12 11:38:55;;;;;;;15.30;9.73;;;7.50;99.90;;;;;;6177163;23;20175;-80
2021/11/12 11:41:23;;;;;;;16.37;10.33;;;7.60;99.90;;;;;;6150277;23;20195;-81
2021/11/12 11:43:49;;;;;;;13.50;9.37;;;8.00;99.90;;;;;;6150090;23;20873;-80
2021/11/12 11:46:26;;;;;;;16.83;9.90;;;8.20;99.90;;;;;;6177211;23;20182;-80
2021/11/12 11:48:54;;;;;;;17.77;11.27;;;8.40;99.90;;;;;;6149425;23;20170;-81
2021/11/12 11:51:33;;;;;;;39.90;20.07;;;8.40;99.90;;;;;;6150243;23;20507;-81
2021/11/12 11:54:10;;;;;;;21.93;12.07;;;8.20;99.90;;;;;;6151446;23;20541;-80
2021/11/12 11:56:44;;;;;;;16.47;10.67;;;7.90;99.90;;;;;;6151569;23;20154;-78
2021/11/12 11:59:10;;;;;;;31.60;12.93;;;7.80;99.90;;;;;;6150674;23;20189;-78
2021/11/12 12:01:43;;;;;;;22.57;13.30;;;7.60;99.90;;;;;;6150761;23;20191;-79
2021/11/12 12:04:15;;;;;;;27.03;16.50;;;7.50;99.90;;;;;;6177237;23;20926;-79
2021/11/12 12:07:05;;;;;;;17.13;11.43;;;7.50;99.90;;;;;;6150066;23;20651;-79
2021/11/12 12:09:41;;;;;;;21.43;12.40;;;7.60;99.90;;;;;;6150485;23;20199;-80
2021/11/12 12:12:07;;;;;;;22.73;12.50;;;7.50;99.90;;;;;;6150455;23;20169;-78
2021/11/12 12:14:35;;;;;;;20.93;12.13;;;7.40;99.90;;;;;;6150592;23;20163;-79
2021/11/12 12:17:06;;;;;;;25.73;15.00;;;7.30;99.90;;;;;;6176340;23;20166;-81
2021/11/12 12:19:48;;;;;;;22.47;16.27;;;7.30;99.90;;;;;;6151723;23;20179;-81
2021/11/12 12:37:10;;;;;;;20.83;11.53;;;7.30;99.90;;;;;;6175261;23;20178;-81
2021/11/12 13:25:53;;;;;;;18.80;11.97;;;7.80;99.90;;;;;;6174998;23;20175;-81
2021/11/12 13:28:37;;;;;;;19.43;12.17;;;7.70;99.90;;;;;;6149251;23;20166;-81
2021/11/12 13:31:10;;;;;;;16.53;11.60;;;7.70;99.90;;;;;;6177841;23;20143;-79
2021/11/12 13:33:49;;;;;;;17.63;11.10;;;7.70;99.90;;;;;;6178121;23;20586;-79
2021/11/12 13:36:28;;;;;;;18.77;11.20;;;7.70;99.90;;;;;;6150301;23;20158;-80
2021/11/12 13:39:18;;;;;;;16.90;11.73;;;7.70;99.90;;;;;;6150303;23;20283;-82
2021/11/12 13:41:47;;;;;;;16.50;11.43;;;7.80;99.90;;;;;;6171268;23;20595;-79
2021/11/12 13:44:21;;;;;;;18.67;12.33;;;7.80;99.90;;;;;;6148754;23;20159;-81
2021/11/12 13:46:54;;;;;;;18.73;12.47;;;7.70;99.90;;;;;;6151389;23;20174;-81
2021/11/12 13:49:36;;;;;;;19.23;13.07;;;7.60;99.90;;;;;;6175805;23;20171;-78
2021/11/12 13:52:08;;;;;;;20.43;12.53;;;7.60;99.90;;;;;;6147782;23;20147;-78
2021/11/12 13:54:47;;;;;;;23.83;13.87;;;7.60;99.90;;;;;;6173639;23;20139;-82
2021/11/12 13:57:17;;;;;;;21.23;12.67;;;7.50;99.90;;;;;;6150753;23;20200;-79
2021/11/12 14:00:13;;;;;;;22.30;13.80;;;7.30;99.90;;;;;;6148933;23;20213;-78
2021/11/12 14:03:04;;;;;;;22.03;13.03;;;7.20;99.90;;;;;;6150989;23;20227;-77
2021/11/12 14:05:30;;;;;;;25.10;14.80;;;7.10;99.90;;;;;;6173969;23;20177;-81
2021/11/12 14:08:02;;;;;;;27.90;15.90;;;7.00;99.90;;;;;;6173792;23;20139;-79
2021/11/12 14:10:46;;;;;;;27.20;16.33;;;6.90;99.90;;;;;;6169846;23;20183;-82
2021/11/12 14:13:16;;;;;;;26.93;16.60;;;6.80;99.90;;;;;;6145869;23;20148;-77
2021/11/12 14:15:55;;;;;;;29.47;16.07;;;6.70;99.90;;;;;;6145098;23;20158;-80
2021/11/12 14:21:14;;;;;;;31.70;17.20;;;6.60;99.90;;;;;;6181923;23;20151;-80
2021/11/12 14:26:51;;;;;;;33.90;19.17;;;6.60;99.90;;;;;;6173965;23;20237;-81
2021/11/12 14:29:44;;;;;;;34.00;18.57;;;6.60;99.90;;;;;;6144120;23;20249;-79
2021/11/12 14:46:21;;;;;;;56.87;28.93;;;5.80;99.90;;;;;;6184094;23;20562;-78
2021/11/12 14:51:21;;;;;;;75.97;36.60;;;5.70;99.90;;;;;;6184017;23;20173;-80
2021/11/12 14:56:18;;;;;;;58.27;28.67;;;5.50;99.90;;;;;;6174355;23;20467;-78
2021/11/12 14:58:47;;;;;;;60.33;25.93;;;5.30;99.90;;;;;;6146971;23;20187;-78
2021/11/12 15:01:16;;;;;;;58.87;25.93;;;5.20;99.90;;;;;;6175212;23;20274;-79
2021/11/12 15:03:44;;;;;;;58.60;24.93;;;5.10;99.90;;;;;;6151452;23;20167;-79
2021/11/12 15:06:18;;;;;;;63.37;25.53;;;5.00;99.90;;;;;;6177500;23;20186;-81
2021/11/12 15:11:18;;;;;;;71.77;28.33;;;5.00;99.90;;;;;;6175172;23;20511;-80
2021/11/12 15:13:45;;;;;;;71.03;30.27;;;5.00;99.90;;;;;;6153387;23;20686;-79
2021/11/12 15:16:22;;;;;;;78.43;35.80;;;5.00;99.90;;;;;;6176399;23;20179;-80
2021/11/12 15:18:51;;;;;;;72.33;30.73;;;5.00;99.90;;;;;;6150585;23;20182;-78
2021/11/12 15:21:27;;;;;;;72.17;30.07;;;5.10;99.90;;;;;;6149700;23;20167;-80
2021/11/12 15:24:05;;;;;;;85.30;33.13;;;5.10;99.90;;;;;;6171519;23;20189;-79
2021/11/12 15:31:48;;;;;;;66.30;28.70;;;4.90;99.90;;;;;;6177513;23;20615;-79
2021/11/12 15:34:15;;;;;;;64.50;27.87;;;4.80;99.90;;;;;;6150760;23;20254;-78
2021/11/12 15:36:57;;;;;;;73.10;29.77;;;4.80;99.90;;;;;;6177289;23;20154;-77
2021/11/12 15:44:52;;;;;;;62.20;26.40;;;4.80;99.90;;;;;;6187584;23;20147;-79
2021/11/12 15:49:44;;;;;;;68.73;28.03;;;4.70;99.90;;;;;;6177213;23;20262;-83
2021/11/12 15:52:21;;;;;;;61.17;25.67;;;4.60;99.90;;;;;;6150701;23;20155;-79
2021/11/12 16:20:47;;;;;;;68.93;30.37;;;4.40;99.90;;;;;;6190789;23;20526;-82
2021/11/12 16:25:59;;;;;;;56.80;24.83;;;4.30;99.90;;;;;;6182448;23;20578;-82
2021/11/12 16:28:30;;;;;;;64.67;26.93;;;4.30;99.90;;;;;;6154652;23;20183;-82
2021/11/12 16:30:58;;;;;;;55.87;23.33;;;4.30;99.90;;;;;;6155907;23;20144;-82
2021/11/12 16:33:26;;;;;;;57.50;23.07;;;4.20;99.90;;;;;;6183504;23;20167;-80
2021/11/12 16:35:52;;;;;;;64.90;23.53;;;4.20;99.90;;;;;;6155266;23;20163;-82
2021/11/12 16:38:22;;;;;;;50.83;21.43;;;4.20;99.90;;;;;;6182131;23;20161;-80
2021/11/12 16:41:01;;;;;;;50.53;19.83;;;4.20;99.90;;;;;;6181683;23;20163;-80
2021/11/12 16:43:35;;;;;;;54.77;22.30;;;4.20;99.90;;;;;;6155231;23;20617;-81
2021/11/12 16:49:14;;;;;;;47.30;20.73;;;4.10;99.90;;;;;;6183143;23;20182;-82
2021/11/12 16:54:16;;;;;;;62.30;24.90;;;4.10;99.90;;;;;;6184021;23;20163;-81
2021/11/12 16:57:04;;;;;;;61.47;23.83;;;4.10;99.90;;;;;;6155518;23;20173;-82
2021/11/12 16:59:37;;;;;;;56.83;21.07;;;4.10;99.90;;;;;;6155102;23;20306;-81
2021/11/12 17:04:35;;;;;;;51.97;20.37;;;4.00;99.90;;;;;;6183582;23;20150;-81
2021/11/12 17:17:24;;;;;;;65.27;21.30;;;4.00;99.90;;;;;;6193079;23;20529;-79
2021/11/12 17:47:06;;;;;;;55.60;20.67;;;3.60;99.90;;;;;;6184300;23;20221;-81
2021/11/12 17:49:46;;;;;;;46.00;17.93;;;3.50;99.90;;;;;;6159274;23;20179;-80
2021/11/12 18:03:31;;;;;;;66.43;22.93;;;3.50;99.90;;;;;;6183550;23;20924;-83
2021/11/12 18:06:08;;;;;;;53.53;22.33;;;3.50;99.90;;;;;;6184461;23;20236;-81
2021/11/12 18:22:36;;;;;;;58.87;21.47;;;3.40;99.90;;;;;;6102274;23;20165;-83
2021/11/12 21:48:49;;;;;;;37.60;18.57;;;3.30;99.90;;;;;;6182583;23;20659;-83
2021/11/12 21:51:23;;;;;;;36.33;17.30;;;3.20;99.90;;;;;;6183527;23;20138;-80
2021/11/12 21:53:53;;;;;;;37.70;17.17;;;3.20;99.90;;;;;;6157578;23;20201;-80
2021/11/12 21:56:19;;;;;;;43.10;18.47;;;3.20;99.90;;;;;;6183762;23;20146;-81
2021/11/12 21:58:45;;;;;;;46.50;16.10;;;3.20;99.90;;;;;;6183362;23;20175;-81
2021/11/12 22:01:11;;;;;;;46.47;17.07;;;3.10;99.90;;;;;;6154909;23;20163;-80
2021/11/12 22:03:37;;;;;;;41.67;17.70;;;3.20;99.90;;;;;;6155870;23;20167;-83
2021/11/12 22:06:03;;;;;;;46.63;17.33;;;3.10;99.90;;;;;;6155423;23;20186;-78
2021/11/12 22:08:30;;;;;;;38.00;16.63;;;3.10;99.90;;;;;;6154515;23;20178;-78
2021/11/12 22:11:02;;;;;;;38.50;16.53;;;3.10;99.90;;;;;;6178385;23;20219;-80
2021/11/12 22:13:27;;;;;;;36.60;16.60;;;3.10;99.90;;;;;;6181316;23;20510;-79
2021/11/12 22:15:53;;;;;;;29.83;16.27;;;3.10;99.90;;;;;;6154748;23;20163;-77
2021/11/12 22:18:19;;;;;;;42.47;15.30;;;3.10;99.90;;;;;;6154906;23;20167;-79
2021/11/12 22:20:45;;;;;;;42.77;15.70;;;3.10;99.90;;;;;;6154902;23;20194;-81
2021/11/12 22:23:11;;;;;;;32.63;14.93;;;3.00;99.90;;;;;;6154817;23;20986;-78
2021/11/12 22:25:37;;;;;;;29.97;16.23;;;3.00;99.90;;;;;;6181541;23;20237;-79
2021/11/12 22:28:03;;;;;;;32.40;15.63;;;3.10;99.90;;;;;;6151784;23;20175;-79
2021/11/12 22:30:29;;;;;;;39.77;16.27;;;3.10;99.90;;;;;;6153512;23;20179;-81
2021/11/12 22:32:55;;;;;;;40.63;15.90;;;3.00;99.90;;;;;;6155253;23;20190;-79
2021/11/12 22:35:23;;;;;;;36.63;15.57;;;3.00;99.90;;;;;;6155551;23;20178;-79
2021/11/12 22:37:49;;;;;;;42.77;15.00;;;3.00;99.90;;;;;;6156056;23;20245;-82
2021/11/12 22:40:14;;;;;;;33.47;14.83;;;3.00;99.90;;;;;;6156532;23;20178;-79
2021/11/12 22:42:41;;;;;;;40.97;15.50;;;3.00;99.90;;;;;;6156808;23;20668;-78
2021/11/12 22:45:07;;;;;;;34.60;14.23;;;2.90;99.90;;;;;;6157698;23;20159;-80
2021/11/12 22:47:33;;;;;;;38.20;15.53;;;2.90;99.90;;;;;;6157771;23;20175;-81
2021/11/12 22:50:00;;;;;;;35.23;15.63;;;2.80;99.90;;;;;;6156310;23;20189;-81
2021/11/12 22:52:26;;;;;;;37.97;14.83;;;2.80;99.90;;;;;;6183824;23;20205;-78